createdAt,value
2019-02-10T00:02:13.522Z,99.90
2019-02-10T00:04:42.761Z,99.90
2019-02-10T00:07:12.007Z,99.90
2019-02-10T00:09:41.171Z,99.90
2019-02-10T00:12:10.316Z,99.90
2019-02-10T00:14:39.687Z,99.90
2019-02-10T00:17:08.884Z,99.90
2019-02-10T00:19:38.059Z,99.90
2019-02-10T00:22:07.671Z,99.90
2019-02-10T00:24:36.854Z,99.90
2019-02-10T00:27:06.156Z,99.90
2019-02-10T00:29:35.508Z,99.90
2019-02-10T00:32:04.661Z,99.90
2019-02-10T00:34:34.006Z,99.90
2019-02-10T00:37:03.235Z,99.90
2019-02-10T00:39:32.446Z,99.90
2019-02-10T00:42:01.693Z,99.90
2019-02-10T00:44:30.882Z,99.90
2019-02-10T00:47:00.108Z,99.90
2019-02-10T00:49:29.268Z,99.90
2019-02-10T00:51:58.483Z,99.90
2019-02-10T00:54:29.447Z,99.90
2019-02-10T00:56:58.615Z,99.90
2019-02-10T00:59:27.885Z,99.90
2019-02-10T01:01:57.025Z,99.90
2019-02-10T01:04:26.359Z,99.90
2019-02-10T01:06:55.569Z,99.90
2019-02-10T01:09:24.755Z,99.90
2019-02-10T01:11:54.142Z,99.90
2019-02-10T01:14:23.307Z,99.90
2019-02-10T01:16:52.520Z,99.90
2019-02-10T01:19:21.641Z,99.90
2019-02-10T01:21:50.802Z,99.90
2019-02-10T01:24:20.031Z,99.90
2019-02-10T01:26:49.184Z,99.90
2019-02-10T01:29:18.397Z,99.90
2019-02-10T01:31:47.613Z,99.90
2019-02-10T01:34:16.733Z,99.90
2019-02-10T01:36:49.789Z,99.90
2019-02-10T01:39:21.577Z,99.90
2019-02-10T01:41:50.863Z,99.90
2019-02-10T01:44:20.000Z,99.90
2019-02-10T01:46:49.141Z,99.90
2019-02-10T01:49:18.297Z,99.90
2019-02-10T01:51:47.503Z,99.90
2019-02-10T01:54:16.724Z,99.90
2019-02-10T01:56:46.000Z,99.90
2019-02-10T01:59:15.112Z,99.90
2019-02-10T02:01:44.341Z,99.90
2019-02-10T02:04:13.478Z,99.90
2019-02-10T02:06:42.728Z,99.90
2019-02-10T02:09:13.808Z,99.90
2019-02-10T02:11:43.231Z,99.90
2019-02-10T02:14:12.357Z,99.90
2019-02-10T02:16:41.548Z,99.90
2019-02-10T02:19:10.738Z,99.90
2019-02-10T02:21:39.971Z,99.90
2019-02-10T02:24:09.157Z,99.90
2019-02-10T02:26:38.312Z,99.90
2019-02-10T02:29:07.469Z,99.90
2019-02-10T02:31:36.724Z,99.90
2019-02-10T02:34:05.922Z,99.90
2019-02-10T02:36:42.079Z,99.90
2019-02-10T02:39:11.304Z,99.90
2019-02-10T02:41:40.440Z,99.90
2019-02-10T02:44:09.621Z,99.90
2019-02-10T02:46:38.742Z,99.90
2019-02-10T02:49:07.892Z,99.90
2019-02-10T02:51:37.138Z,99.90
2019-02-10T02:54:06.544Z,99.90
2019-02-10T02:56:35.700Z,99.90
2019-02-10T02:59:04.907Z,99.90
2019-02-10T03:01:34.109Z,99.90
2019-02-10T03:04:03.344Z,99.90
2019-02-10T03:06:48.215Z,99.90
2019-02-10T03:09:17.674Z,99.90
2019-02-10T03:11:46.842Z,99.90
2019-02-10T03:14:16.028Z,99.90
2019-02-10T03:16:45.178Z,99.90
2019-02-10T03:19:14.377Z,99.90
2019-02-10T03:21:43.681Z,99.90
2019-02-10T03:24:12.993Z,99.90
2019-02-10T03:26:42.301Z,99.90
2019-02-10T03:29:11.445Z,99.90
2019-02-10T03:31:40.654Z,99.90
2019-02-10T03:34:09.886Z,99.90
2019-02-10T03:36:39.025Z,99.90
2019-02-10T03:39:09.303Z,99.90
2019-02-10T03:41:38.561Z,99.90
2019-02-10T03:44:07.727Z,99.90
2019-02-10T03:46:37.001Z,99.90
2019-02-10T03:49:06.210Z,99.90
2019-02-10T03:51:35.362Z,99.90
2019-02-10T03:54:04.495Z,99.90
2019-02-10T03:56:33.668Z,99.90
2019-02-10T03:59:02.898Z,99.90
2019-02-10T04:01:32.055Z,99.90
2019-02-10T04:04:01.260Z,99.90
2019-02-10T04:06:30.452Z,99.90
2019-02-10T04:08:59.587Z,99.90
2019-02-10T04:11:28.769Z,99.90
2019-02-10T04:13:57.921Z,99.90
2019-02-10T04:16:28.048Z,99.90
2019-02-10T04:18:57.200Z,99.90
2019-02-10T04:21:26.357Z,99.90
2019-02-10T04:23:55.490Z,99.90
2019-02-10T04:26:26.098Z,99.90
2019-02-10T04:28:55.257Z,99.90
2019-02-10T04:31:24.413Z,99.90
2019-02-10T04:33:53.658Z,99.90
2019-02-10T04:36:22.845Z,99.90
2019-02-10T04:38:51.984Z,99.90
2019-02-10T04:41:21.200Z,99.90
2019-02-10T04:43:50.340Z,99.90
2019-02-10T04:46:19.598Z,99.90
2019-02-10T04:48:48.770Z,99.90
2019-02-10T04:51:17.977Z,99.90
2019-02-10T04:53:47.200Z,99.90
2019-02-10T04:56:19.836Z,99.90
2019-02-10T04:58:49.109Z,99.90
2019-02-10T05:01:18.317Z,99.90
2019-02-10T05:03:48.662Z,99.90
2019-02-10T05:06:17.905Z,99.90
2019-02-10T05:08:47.132Z,99.90
2019-02-10T05:11:16.385Z,99.90
2019-02-10T05:13:45.586Z,99.90
2019-02-10T05:16:14.756Z,99.90
2019-02-10T05:18:43.879Z,99.90
2019-02-10T05:21:13.126Z,99.90
2019-02-10T05:23:42.329Z,99.90
2019-02-10T05:26:11.517Z,99.90
2019-02-10T05:28:43.669Z,99.90
2019-02-10T05:31:12.836Z,99.90
2019-02-10T05:33:42.027Z,99.90
2019-02-10T05:36:11.132Z,99.90
2019-02-10T05:38:40.355Z,99.90
2019-02-10T05:41:09.496Z,99.90
2019-02-10T05:43:38.653Z,99.90
2019-02-10T05:46:07.814Z,99.90
2019-02-10T05:48:36.980Z,99.90
2019-02-10T05:51:06.142Z,99.90
2019-02-10T05:53:35.291Z,99.90
2019-02-10T05:56:04.568Z,99.90
2019-02-10T05:58:33.815Z,99.90
2019-02-10T06:01:38.827Z,99.90
2019-02-10T06:04:08.033Z,99.90
2019-02-10T06:06:38.653Z,99.90
2019-02-10T06:09:07.803Z,99.90
2019-02-10T06:11:37.107Z,99.90
2019-02-10T06:14:06.266Z,99.90
2019-02-10T06:16:35.429Z,99.90
2019-02-10T06:19:04.680Z,99.90
2019-02-10T06:21:33.872Z,99.90
2019-02-10T06:24:03.103Z,99.90
2019-02-10T06:26:32.325Z,99.90
2019-02-10T06:29:01.454Z,99.90
2019-02-10T06:31:30.616Z,99.90
2019-02-10T06:33:59.753Z,99.90
2019-02-10T06:36:28.912Z,99.90
2019-02-10T06:38:58.057Z,99.90
2019-02-10T06:41:27.189Z,99.90
2019-02-10T06:43:56.371Z,99.90
2019-02-10T06:46:25.580Z,99.90
2019-02-10T06:48:54.812Z,99.90
2019-02-10T06:51:23.957Z,99.90
2019-02-10T06:53:53.097Z,99.90
2019-02-10T06:56:22.257Z,99.90
2019-02-10T06:58:51.401Z,99.90
2019-02-10T07:01:24.998Z,99.90
2019-02-10T07:04:06.395Z,99.90
2019-02-10T07:06:35.554Z,99.90
2019-02-10T07:09:05.919Z,99.90
2019-02-10T07:11:35.024Z,99.90
2019-02-10T07:14:06.088Z,99.90
2019-02-10T07:16:44.553Z,99.90
2019-02-10T07:19:49.759Z,99.90
2019-02-10T07:23:02.293Z,99.90
2019-02-10T07:25:54.840Z,99.90
2019-02-10T07:29:15.216Z,99.90
2019-02-10T07:32:07.416Z,99.90
2019-02-10T07:35:12.823Z,99.90
2019-02-10T07:38:17.901Z,99.90
2019-02-10T07:41:49.715Z,99.90
2019-02-10T07:44:33.541Z,99.90
2019-02-10T07:47:44.879Z,99.90
2019-02-10T07:50:47.733Z,99.90
2019-02-10T07:53:44.573Z,99.90
2019-02-10T07:56:51.073Z,99.90
2019-02-10T08:00:00.876Z,99.90
2019-02-10T08:03:20.737Z,99.90
2019-02-10T08:06:34.057Z,99.90
2019-02-10T08:09:33.307Z,99.90
2019-02-10T08:12:40.524Z,99.90
2019-02-10T08:15:39.732Z,99.90
2019-02-10T08:18:31.833Z,99.90
2019-02-10T08:21:33.041Z,99.90
2019-02-10T08:24:41.809Z,99.90
2019-02-10T08:27:32.589Z,99.90
2019-02-10T08:30:40.475Z,99.90
2019-02-10T08:33:23.848Z,99.90
2019-02-10T08:36:29.228Z,99.90
2019-02-10T08:39:51.493Z,99.90
2019-02-10T08:43:03.745Z,99.90
2019-02-10T08:46:06.992Z,99.90
2019-02-10T08:49:13.369Z,99.90
2019-02-10T08:52:25.887Z,99.90
2019-02-10T08:54:56.248Z,99.90
2019-02-10T08:57:25.499Z,99.90
2019-02-10T08:59:54.664Z,99.90
2019-02-10T09:02:24.021Z,99.90
2019-02-10T09:04:53.200Z,99.90
2019-02-10T09:07:22.395Z,99.90
2019-02-10T09:12:26.914Z,99.90
2019-02-10T09:14:56.210Z,99.90
2019-02-10T09:17:25.467Z,99.90
2019-02-10T09:19:54.655Z,99.90
2019-02-10T09:22:23.909Z,99.90
2019-02-10T09:24:53.114Z,99.90
2019-02-10T09:27:22.375Z,99.90
2019-02-10T09:29:51.568Z,99.90
2019-02-10T09:32:20.713Z,99.90
2019-02-10T09:34:50.036Z,99.90
2019-02-10T09:37:20.865Z,99.90
2019-02-10T09:39:50.189Z,99.90
2019-02-10T09:42:19.341Z,99.90
2019-02-10T09:44:48.573Z,99.90
2019-02-10T09:47:17.991Z,99.90
2019-02-10T09:49:47.305Z,99.90
2019-02-10T09:52:16.568Z,99.90
2019-02-10T09:54:45.747Z,99.90
2019-02-10T09:57:15.093Z,99.90
2019-02-10T09:59:44.460Z,99.90
2019-02-10T10:02:13.740Z,99.70
2019-02-10T10:04:43.015Z,99.90
2019-02-10T10:07:12.264Z,99.90
2019-02-10T10:09:41.501Z,99.80
2019-02-10T10:12:10.762Z,99.90
2019-02-10T10:14:39.964Z,99.90
2019-02-10T10:17:09.360Z,99.90
2019-02-10T10:19:38.592Z,99.70
2019-02-10T10:22:07.781Z,99.80
2019-02-10T10:24:37.066Z,99.90
2019-02-10T10:27:06.316Z,99.20
2019-02-10T10:29:35.471Z,98.90
2019-02-10T10:32:05.889Z,99.80
2019-02-10T10:34:35.243Z,99.90
2019-02-10T10:37:04.553Z,99.90
2019-02-10T10:39:33.828Z,99.30
2019-02-10T10:42:03.078Z,97.80
2019-02-10T10:44:32.370Z,97.10
2019-02-10T10:47:01.564Z,97.20
2019-02-10T10:49:30.722Z,97.70
2019-02-10T10:52:00.031Z,97.10
2019-02-10T10:54:29.240Z,97.60
2019-02-10T10:56:58.534Z,97.40
2019-02-10T10:59:27.724Z,97.20
2019-02-10T11:01:56.943Z,97.40
2019-02-10T11:04:26.117Z,97.20
2019-02-10T11:06:55.433Z,96.10
2019-02-10T11:09:24.756Z,96.80
2019-02-10T11:11:53.999Z,95.70
2019-02-10T11:14:23.181Z,95.50
2019-02-10T11:16:52.434Z,95.60
2019-02-10T11:19:21.697Z,95.70
2019-02-10T11:21:50.865Z,95.70
2019-02-10T11:24:20.026Z,95.60
2019-02-10T11:26:49.208Z,96.20
2019-02-10T11:29:18.420Z,94.80
2019-02-10T11:31:47.719Z,94.60
2019-02-10T11:34:16.920Z,94.00
2019-02-10T11:36:46.072Z,94.30
2019-02-10T11:39:15.299Z,94.10
2019-02-10T11:41:44.540Z,93.80
2019-02-10T11:44:13.795Z,93.60
2019-02-10T11:46:43.041Z,93.30
2019-02-10T11:49:12.369Z,92.90
2019-02-10T11:51:41.765Z,93.10
2019-02-10T11:54:10.954Z,93.10
2019-02-10T11:56:40.273Z,93.40
2019-02-10T11:59:09.684Z,92.90
2019-02-10T12:01:38.923Z,92.40
2019-02-10T12:04:08.200Z,92.30
2019-02-10T12:06:37.541Z,92.10
2019-02-10T12:09:07.407Z,92.00
2019-02-10T12:11:36.696Z,91.90
2019-02-10T12:14:05.841Z,91.10
2019-02-10T12:16:35.096Z,91.40
2019-02-10T12:19:04.633Z,92.00
2019-02-10T12:21:33.908Z,91.90
2019-02-10T12:24:03.314Z,91.90
2019-02-10T12:26:32.526Z,92.30
2019-02-10T12:29:01.737Z,92.00
2019-02-10T12:31:30.940Z,92.40
2019-02-10T12:34:00.268Z,91.90
2019-02-10T12:36:29.561Z,92.20
2019-02-10T12:38:58.808Z,91.60
2019-02-10T12:41:28.084Z,91.60
2019-02-10T12:43:57.275Z,91.20
2019-02-10T12:46:26.605Z,91.20
2019-02-10T12:48:57.553Z,91.60
2019-02-10T12:51:26.824Z,91.70
2019-02-10T12:53:56.149Z,91.70
2019-02-10T12:56:25.395Z,92.40
2019-02-10T12:58:54.606Z,92.80
2019-02-10T13:01:25.487Z,93.30
2019-02-10T13:03:54.705Z,93.60
2019-02-10T13:06:23.983Z,94.00
2019-02-10T13:08:56.020Z,94.30
2019-02-10T13:11:25.261Z,95.30
2019-02-10T13:13:54.620Z,96.90
2019-02-10T13:16:23.824Z,98.70
2019-02-10T13:18:53.028Z,99.20
2019-02-10T13:21:22.221Z,99.90
2019-02-10T13:23:51.594Z,99.90
2019-02-10T13:26:20.822Z,99.90
2019-02-10T13:28:50.056Z,99.90
2019-02-10T13:31:19.282Z,99.90
2019-02-10T13:33:48.568Z,99.90
2019-02-10T13:36:17.737Z,99.90
2019-02-10T13:38:46.917Z,99.90
2019-02-10T13:41:16.192Z,99.90
2019-02-10T13:43:45.440Z,99.90
2019-02-10T13:46:14.692Z,99.90
2019-02-10T13:48:44.016Z,99.90
2019-02-10T13:51:13.217Z,99.90
2019-02-10T13:53:42.549Z,99.90
2019-02-10T13:56:11.788Z,99.90
2019-02-10T13:58:41.140Z,99.90
2019-02-10T14:01:10.465Z,99.90
2019-02-10T14:03:39.732Z,99.90
2019-02-10T14:06:09.056Z,99.90
2019-02-10T14:08:38.381Z,99.90
2019-02-10T14:11:07.653Z,99.90
2019-02-10T14:13:36.896Z,99.90
2019-02-10T14:16:06.139Z,99.90
2019-02-10T14:18:35.484Z,99.90
2019-02-10T14:21:04.753Z,99.90
2019-02-10T14:23:33.917Z,99.90
2019-02-10T14:26:03.300Z,99.90
2019-02-10T14:28:32.490Z,99.90
2019-02-10T14:31:01.680Z,99.90
2019-02-10T14:33:38.502Z,99.90
2019-02-10T14:36:02.166Z,99.90
2019-02-10T14:38:36.406Z,99.90
2019-02-10T14:41:02.422Z,99.90
2019-02-10T14:43:31.662Z,99.90
2019-02-10T14:46:00.823Z,99.90
2019-02-10T14:48:30.069Z,99.90
2019-02-10T14:50:59.357Z,99.90
2019-02-10T14:53:28.577Z,99.90
2019-02-10T14:55:57.827Z,99.90
2019-02-10T14:58:27.104Z,99.90
2019-02-10T15:00:56.389Z,99.90
2019-02-10T15:03:25.640Z,99.90
2019-02-10T15:05:54.943Z,99.90
2019-02-10T15:08:26.025Z,99.90
2019-02-10T15:10:55.307Z,99.90
2019-02-10T15:13:24.532Z,99.90
2019-02-10T15:15:53.878Z,99.90
2019-02-10T15:18:23.168Z,99.90
2019-02-10T15:20:52.452Z,99.90
2019-02-10T15:23:21.729Z,99.90
2019-02-10T15:25:50.990Z,99.90
2019-02-10T15:28:20.273Z,99.90
2019-02-10T15:30:49.595Z,99.90
2019-02-10T15:33:18.922Z,99.90
2019-02-10T15:35:50.024Z,99.90
2019-02-10T15:38:20.361Z,99.90
2019-02-10T15:40:50.274Z,99.90
2019-02-10T15:43:19.692Z,99.90
2019-02-10T15:45:49.044Z,99.90
2019-02-10T15:48:18.311Z,99.90
2019-02-10T15:50:47.569Z,99.90
2019-02-10T15:53:16.798Z,99.90
2019-02-10T15:55:46.069Z,99.90
2019-02-10T15:58:15.258Z,99.90
2019-02-10T16:00:45.943Z,99.90
2019-02-10T16:03:15.251Z,99.90
2019-02-10T16:05:44.681Z,99.90
2019-02-10T16:08:13.964Z,99.90
2019-02-10T16:10:43.257Z,99.90
2019-02-10T16:13:12.551Z,99.90
2019-02-10T16:15:41.960Z,99.90
2019-02-10T16:18:11.226Z,99.90
2019-02-10T16:20:42.091Z,99.90
2019-02-10T16:23:11.276Z,99.90
2019-02-10T16:25:40.964Z,99.90
2019-02-10T16:28:10.355Z,99.90
2019-02-10T16:30:39.679Z,99.90
2019-02-10T16:33:08.831Z,99.90
2019-02-10T16:35:38.089Z,99.90
2019-02-10T16:38:07.349Z,99.90
2019-02-10T16:40:37.741Z,99.90
2019-02-10T16:43:07.113Z,99.90
2019-02-10T16:45:36.423Z,99.90
2019-02-10T16:48:05.776Z,99.90
2019-02-10T16:50:35.040Z,99.90
2019-02-10T16:53:05.450Z,99.90
2019-02-10T16:55:34.722Z,99.90
2019-02-10T16:58:05.064Z,99.90
2019-02-10T17:00:34.332Z,99.90
2019-02-10T17:03:03.576Z,99.90
2019-02-10T17:05:32.752Z,99.90
2019-02-10T17:08:02.103Z,99.90
2019-02-10T17:10:31.447Z,99.90
2019-02-10T17:13:02.203Z,99.90
2019-02-10T17:15:31.517Z,99.90
2019-02-10T17:18:00.820Z,99.90
2019-02-10T17:20:30.040Z,99.90
2019-02-10T17:22:59.275Z,99.90
2019-02-10T17:25:28.749Z,99.90
2019-02-10T17:27:57.958Z,99.90
2019-02-10T17:30:27.220Z,99.90
2019-02-10T17:32:56.520Z,99.90
2019-02-10T17:35:27.259Z,99.90
2019-02-10T17:37:56.499Z,99.90
2019-02-10T17:40:33.005Z,99.90
2019-02-10T17:43:03.135Z,99.90
2019-02-10T17:45:33.681Z,99.90
2019-02-10T17:48:02.844Z,99.90
2019-02-10T17:50:32.282Z,99.90
2019-02-10T17:53:01.504Z,99.90
2019-02-10T17:55:30.708Z,99.90
2019-02-10T17:57:59.877Z,99.90
2019-02-10T18:00:33.528Z,99.90
2019-02-10T18:03:02.817Z,99.90
2019-02-10T18:05:32.117Z,99.90
2019-02-10T18:08:01.388Z,99.90
2019-02-10T18:10:30.697Z,99.90
2019-02-10T18:13:00.120Z,99.90
2019-02-10T18:15:47.336Z,99.90
2019-02-10T18:18:38.431Z,99.90
2019-02-10T18:21:25.385Z,99.90
2019-02-10T18:24:22.584Z,99.90
2019-02-10T18:27:18.434Z,99.90
2019-02-10T18:30:09.399Z,99.90
2019-02-10T18:33:06.806Z,99.90
2019-02-10T18:36:01.206Z,99.90
2019-02-10T18:38:38.094Z,99.90
2019-02-10T18:41:29.312Z,99.90
2019-02-10T18:44:20.768Z,99.90
2019-02-10T18:47:10.243Z,99.90
2019-02-10T18:50:04.288Z,99.90
2019-02-10T18:52:41.460Z,99.90
2019-02-10T18:55:19.142Z,99.90
2019-02-10T18:58:22.792Z,99.90
2019-02-10T19:01:11.071Z,99.90
2019-02-10T19:03:58.129Z,99.90
2019-02-10T19:06:34.417Z,99.90
2019-02-10T19:09:30.348Z,99.90
2019-02-10T19:12:18.585Z,99.90
2019-02-10T19:15:05.626Z,99.90
2019-02-10T19:17:56.382Z,99.90
2019-02-10T19:20:36.458Z,99.90
2019-02-10T19:23:23.716Z,99.90
2019-02-10T19:26:27.021Z,99.90
2019-02-10T19:29:12.763Z,99.90
2019-02-10T19:31:51.612Z,99.90
2019-02-10T19:34:34.150Z,99.90
2019-02-10T19:37:27.193Z,99.90
2019-02-10T19:40:15.397Z,99.90
2019-02-10T19:43:02.563Z,99.90
2019-02-10T19:45:51.889Z,99.90
2019-02-10T19:48:43.089Z,99.90
2019-02-10T19:51:34.139Z,99.90
2019-02-10T19:54:18.339Z,99.90
2019-02-10T19:57:05.613Z,99.90
2019-02-10T20:00:06.245Z,99.90
2019-02-10T20:03:06.616Z,99.90
2019-02-10T20:05:49.598Z,99.90
2019-02-10T20:08:33.229Z,99.90
2019-02-10T20:11:24.538Z,99.90
2019-02-10T20:14:11.725Z,99.90
2019-02-10T20:16:52.828Z,99.90
2019-02-10T20:19:50.378Z,99.90
2019-02-10T20:22:28.597Z,99.90
2019-02-10T20:25:15.289Z,99.90
2019-02-10T20:28:09.560Z,99.90
2019-02-10T20:31:05.587Z,99.90
2019-02-10T20:33:53.876Z,99.90
2019-02-10T20:36:45.327Z,99.90
2019-02-10T20:39:19.874Z,99.90
2019-02-10T20:42:11.918Z,99.90
2019-02-10T20:45:07.040Z,99.90
2019-02-10T20:47:54.157Z,99.90
2019-02-10T20:50:42.365Z,99.90
2019-02-10T20:53:39.588Z,99.90
2019-02-10T20:56:20.097Z,99.90
2019-02-10T20:59:00.606Z,99.90
2019-02-10T21:01:54.706Z,99.90
2019-02-10T21:04:49.075Z,99.90
2019-02-10T21:07:34.769Z,99.90
2019-02-10T21:10:12.088Z,99.90
2019-02-10T21:12:50.466Z,99.90
2019-02-10T21:15:56.881Z,99.90
2019-02-10T21:18:48.253Z,99.90
2019-02-10T21:21:42.329Z,99.90
2019-02-10T21:24:29.613Z,99.90
2019-02-10T21:27:11.858Z,99.90
2019-02-10T21:29:53.334Z,99.90
2019-02-10T21:32:50.869Z,99.90
2019-02-10T21:35:30.010Z,99.90
2019-02-10T21:38:18.268Z,99.90
2019-02-10T21:40:57.646Z,99.90
2019-02-10T21:43:54.985Z,99.90
2019-02-10T21:46:43.115Z,99.90
2019-02-10T21:49:14.268Z,99.90
2019-02-10T21:51:43.711Z,99.90
2019-02-10T21:54:13.009Z,99.90
2019-02-10T21:56:42.275Z,99.90
2019-02-10T21:59:11.542Z,99.90
2019-02-10T22:01:40.766Z,99.90
2019-02-10T22:04:11.115Z,99.90
2019-02-10T22:06:40.312Z,99.90
2019-02-10T22:09:09.586Z,99.90
2019-02-10T22:11:38.864Z,99.90
2019-02-10T22:14:08.036Z,99.90
2019-02-10T22:16:37.311Z,99.90
2019-02-10T22:19:06.576Z,99.90
2019-02-10T22:21:37.324Z,99.90
2019-02-10T22:24:08.047Z,99.90
2019-02-10T22:26:37.302Z,99.90
2019-02-10T22:29:06.562Z,99.90
2019-02-10T22:31:35.756Z,99.90
2019-02-10T22:34:05.031Z,99.90
2019-02-10T22:36:34.277Z,99.90
2019-02-10T22:39:04.988Z,99.90
2019-02-10T22:41:34.264Z,99.90
2019-02-10T22:44:03.541Z,99.90
2019-02-10T22:46:32.826Z,99.90
2019-02-10T22:49:02.082Z,99.90
2019-02-10T22:51:31.336Z,99.90
2019-02-10T22:54:00.522Z,99.90
2019-02-10T22:56:29.784Z,99.90
2019-02-10T22:58:59.013Z,99.90
2019-02-10T23:01:28.558Z,99.90
2019-02-10T23:03:58.043Z,99.90
2019-02-10T23:06:27.188Z,99.90
2019-02-10T23:08:56.344Z,99.90
2019-02-10T23:11:25.736Z,99.90
2019-02-10T23:13:54.945Z,99.90
2019-02-10T23:16:24.269Z,99.90
2019-02-10T23:18:53.477Z,99.90
2019-02-10T23:21:22.670Z,99.90
2019-02-10T23:23:51.917Z,99.90
2019-02-10T23:26:21.272Z,99.90
2019-02-10T23:28:50.529Z,99.90
2019-02-10T23:31:19.778Z,99.90
2019-02-10T23:33:49.001Z,99.90
2019-02-10T23:36:18.241Z,99.90
2019-02-10T23:38:47.408Z,99.90
2019-02-10T23:41:16.646Z,99.90
2019-02-10T23:43:47.419Z,99.90
2019-02-10T23:46:16.613Z,99.90
2019-02-10T23:48:45.923Z,99.90
2019-02-10T23:51:15.113Z,99.90
2019-02-10T23:53:44.334Z,99.90
2019-02-10T23:56:13.581Z,99.90
2019-02-10T23:58:42.788Z,99.90
